Atlantic - Newfoundland: Past 24 Hour Conditions

 

Bonavista

08:30 PM NDT 16 April 2014
This table is a summary of hourly weather conditions for the past 24 hours.
Date / Time
(NDT)
Wind(knots) Conditions Visibility(km) Pressure(kPa) Air tempC) Relative humidity(%) Dew pointC)
16 April 2014
20:30 SSW 30 gust 39 N/A N/A 101.4 10 84 8
19:30 SSW 33 gust 41 N/A N/A 101.4 11 78 8
18:30 SSW 33 gust 48 N/A N/A 101.4 13 74 8
17:30 SSW 28 gust 35 N/A N/A 101.5 13 74 8
16:30 SSW 23 gust 32 N/A N/A 101.6 13 73 8
15:30 SW 33 gust 40 N/A N/A 101.6 15 69 9
14:30 SW 32 gust 40 N/A N/A 101.6 14 66 7
13:30 SW 30 gust 43 N/A N/A 101.7 14 65 8
12:30 SW 24 gust 33 N/A N/A 101.7 14 70 8
11:30 SSW 16 gust 28 N/A N/A 101.8 14 76 10
10:30 S 15 gust 23 N/A N/A 101.9 12 80 9
9:30 SW 24 gust 29 N/A N/A 101.9 12 85 9
8:30 SSW 16 gust 22 N/A N/A 101.9 11 89 9
7:30 SW 17 N/A N/A 101.8 9 94 9
6:30 SW 20 N/A N/A 101.8 9 93 8
5:30 SW 24 gust 31 N/A N/A 101.7 9 94 8
4:30 SW 23 gust 28 N/A N/A 101.8 9 93 8
3:30 SW 20 gust 25 N/A N/A 101.8 9 92 8
2:30 SW 17 gust 25 N/A N/A 101.8 9 92 7
1:30 SSW 12 N/A N/A 101.9 6 94 5
0:30 S 11 N/A N/A 101.9 5 93 4
15 April 2014
23:30 SW 17 N/A N/A 101.9 9 86 7
22:30 SW 18 N/A N/A 101.9 8 89 6
21:30 SW 19 gust 27 N/A N/A 101.8 7 93 6
20:30 SW 18 N/A N/A 101.8 8 88 6
 
Map of Atlantic - Newfoundland marine weather areas Southwestern Grand Banks - 44138 Banquereau - 44139 Tail of the Bank - 44140 Nickerson Bank - 44251 Northeast Burgeo Bank - 44255 Blanc-Sablon Airport Cap Whittle Chevery Natashquan Airport Heath Point Miscou Island Grand Étang Ingonish Beach North Mountain St.Paul Island J.A. Douglas McCurdy Sydney Airport Charlottetown Airport East Point North Cape Argentia Bonavista Burgeo Cape Race Corner Brook Daniel's Harbour Englee Ferolle Point La Scie Port aux Basques Rocky Harbour Sagona Island St. Anthony Airport St. John's Int'l Airport St. Lawrence Stephenville Airport Twillingate Winterland Wreckhouse Cartwright Airport Mary's Harbour Grates Cove Pool's Island Marticot Island Long Pond Îles de la Madeleine Airport
Legend: buoyBuoy land stationLand Station